Canadian Empress — VX6095 — position and weather

sailwx.info

Track history (hours):
 
Tides and Currents Weather Stations Pressure Air Temp Water Temp Dewpoint Dewpoint Depression Visibility Wind Speed Wind Dir Waves Ship Positions

Canadian Empress

Last reported at 2018-May-19 20:56 UTC. Time now 2018-May-20 11:51 UTC.
Position N 46°48' W 071°12'.

Length 32 m.

Type: Passenger vessel. MMSI: 314954012.

Date/timePositionNaut miles runAvg speedWind from/ knotsBaromVisibWave heightAir tempDewpointWater temp
2018-May-19 20:56N 46°48' W 071°12'1 2.8
2018-May-19 20:26N 46°49' W 071°12'0 0.1
2018-May-19 19:07N 46°49' W 071°12'0 0.0
2018-May-19 18:58N 46°49' W 071°12'0 0.0
2018-May-19 18:29N 46°49' W 071°12'0 0.0
2018-May-19 17:59N 46°49' W 071°12'0 0.8
2018-May-19 17:30N 46°49' W 071°12'89 3.4
2018-May-18 15:13N 46°04' W 073°03'312.1
2018-May-18 15:00N 46°03' W 073°07'611.5
2018-May-18 14:30N 45°59' W 073°12'612.2
2018-May-18 14:00N 45°53' W 073°15'612.4
2018-May-18 13:30N 45°48' W 073°20'712.4
2018-May-18 12:58N 45°43' W 073°26'13 0.7
2018-May-17 18:06N 45°30' W 073°31'0 0.3
2018-May-17 17:37N 45°30' W 073°31'0 2.2
2018-May-17 17:30N 45°29' W 073°31'1 2.5
2018-May-17 16:58N 45°28' W 073°30'3 5.8
2018-May-17 16:28N 45°25' W 073°30'3 5.4
2018-May-17 16:00N 45°24' W 073°34'4 4.2
2018-May-17 15:00N 45°25' W 073°40'3 6.7
2018-May-17 14:30N 45°24' W 073°44'510.5
2018-May-17 14:00N 45°21' W 073°51'4 7.6
2018-May-17 13:29N 45°19' W 073°55'1 1.7
2018-May-17 13:00N 45°18' W 073°56'0 0.7
2018-May-17 12:30N 45°18' W 073°56'  
2018-May-10 18:01N 45°18' W 073°56'0 9.6
2018-May-10 18:00N 45°18' W 073°56'4 2.8
2018-May-10 16:23N 45°21' W 073°52'3 7.6
2018-May-10 16:00N 45°23' W 073°49'4 8.8
2018-May-10 15:30N 45°25' W 073°43'1 2.7
2018-May-10 15:00N 45°26' W 073°42'0 0.0
2018-May-10 14:30N 45°26' W 073°42'0 0.0
2018-May-10 14:00N 45°26' W 073°42'0 0.0
2018-May-10 13:30N 45°26' W 073°42'0 0.0
2018-May-10 13:00N 45°26' W 073°42'0 0.0
2018-May-10 12:30N 45°26' W 073°42'0 0.0
2018-May-10 12:00N 45°26' W 073°42'0 0.0
2018-May-10 00:21N 45°26' W 073°42'0 0.0
2018-May-10 00:00N 45°26' W 073°42'0 0.0
2018-May-09 23:30N 45°26' W 073°42'0 0.0
2018-May-09 23:00N 45°26' W 073°42'0 0.0
2018-May-09 22:30N 45°26' W 073°42'0 0.0
2018-May-09 22:00N 45°26' W 073°42'0 0.0
2018-May-09 21:30N 45°26' W 073°42'0 0.0
2018-May-09 21:00N 45°26' W 073°42'  
Track history (hours):
 
Tides and Currents Weather Stations Pressure Air Temp Water Temp Dewpoint Dewpoint Depression Visibility Wind Speed Wind Dir Waves Ship Positions

Canadian Empress

Last reported at 2018-May-19 20:56 UTC. Time now 2018-May-20 11:51 UTC.
Position N 46°48' W 071°12'.

Length 32 m.

Type: Passenger vessel. MMSI: 314954012.

Date/timePositionNaut miles runAvg speedWind from/ knotsBaromVisibWave heightAir tempDewpointWater temp
2018-May-19 20:56N 46°48' W 071°12'1 2.8
2018-May-19 20:26N 46°49' W 071°12'0 0.1
2018-May-19 19:07N 46°49' W 071°12'0 0.0
2018-May-19 18:58N 46°49' W 071°12'0 0.0
2018-May-19 18:29N 46°49' W 071°12'0 0.0
2018-May-19 17:59N 46°49' W 071°12'0 0.8
2018-May-19 17:30N 46°49' W 071°12'89 3.4
2018-May-18 15:13N 46°04' W 073°03'312.1
2018-May-18 15:00N 46°03' W 073°07'611.5
2018-May-18 14:30N 45°59' W 073°12'612.2
2018-May-18 14:00N 45°53' W 073°15'612.4
2018-May-18 13:30N 45°48' W 073°20'712.4
2018-May-18 12:58N 45°43' W 073°26'13 0.7
2018-May-17 18:06N 45°30' W 073°31'0 0.3
2018-May-17 17:37N 45°30' W 073°31'0 2.2
2018-May-17 17:30N 45°29' W 073°31'1 2.5
2018-May-17 16:58N 45°28' W 073°30'3 5.8
2018-May-17 16:28N 45°25' W 073°30'3 5.4
2018-May-17 16:00N 45°24' W 073°34'4 4.2
2018-May-17 15:00N 45°25' W 073°40'3 6.7
2018-May-17 14:30N 45°24' W 073°44'510.5
2018-May-17 14:00N 45°21' W 073°51'4 7.6
2018-May-17 13:29N 45°19' W 073°55'1 1.7
2018-May-17 13:00N 45°18' W 073°56'0 0.7
2018-May-17 12:30N 45°18' W 073°56'  
2018-May-10 18:01N 45°18' W 073°56'0 9.6
2018-May-10 18:00N 45°18' W 073°56'4 2.8
2018-May-10 16:23N 45°21' W 073°52'3 7.6
2018-May-10 16:00N 45°23' W 073°49'4 8.8
2018-May-10 15:30N 45°25' W 073°43'1 2.7
2018-May-10 15:00N 45°26' W 073°42'0 0.0
2018-May-10 14:30N 45°26' W 073°42'0 0.0
2018-May-10 14:00N 45°26' W 073°42'0 0.0
2018-May-10 13:30N 45°26' W 073°42'0 0.0
2018-May-10 13:00N 45°26' W 073°42'0 0.0
2018-May-10 12:30N 45°26' W 073°42'0 0.0
2018-May-10 12:00N 45°26' W 073°42'0 0.0
2018-May-10 00:21N 45°26' W 073°42'0 0.0
2018-May-10 00:00N 45°26' W 073°42'0 0.0
2018-May-09 23:30N 45°26' W 073°42'0 0.0
2018-May-09 23:00N 45°26' W 073°42'0 0.0
2018-May-09 22:30N 45°26' W 073°42'0 0.0
2018-May-09 22:00N 45°26' W 073°42'0 0.0
2018-May-09 21:30N 45°26' W 073°42'0 0.0
2018-May-09 21:00N 45°26' W 073°42'  

Dump ship's entire track history